createdAt,value
2023-01-30T00:01:01.133Z,33.13
2023-01-30T00:03:27.857Z,36.93
2023-01-30T00:05:54.287Z,32.47
2023-01-30T00:08:20.883Z,33.27
2023-01-30T00:10:47.418Z,32.63
2023-01-30T00:13:17.168Z,34.43
2023-01-30T00:15:43.930Z,36.90
2023-01-30T00:18:10.515Z,32.00
2023-01-30T00:20:37.325Z,38.20
2023-01-30T00:23:04.309Z,35.87
2023-01-30T00:25:31.556Z,35.03
2023-01-30T00:28:01.654Z,35.90
2023-01-30T00:30:28.769Z,29.60
2023-01-30T00:32:58.943Z,34.70
2023-01-30T00:35:28.528Z,35.10
2023-01-30T00:37:58.883Z,32.13
2023-01-30T00:40:26.236Z,36.50
2023-01-30T00:46:03.150Z,34.23
2023-01-30T00:48:29.697Z,37.50
2023-01-30T00:50:56.181Z,35.20
2023-01-30T00:53:22.915Z,36.60
2023-01-30T00:55:52.685Z,36.17
2023-01-30T00:58:20.034Z,34.90
2023-01-30T01:00:46.499Z,35.00
2023-01-30T01:03:13.180Z,34.63
2023-01-30T01:05:39.704Z,33.73
2023-01-30T01:08:06.166Z,34.87
2023-01-30T01:10:32.679Z,36.37
2023-01-30T01:12:59.241Z,37.03
2023-01-30T01:15:26.644Z,33.50
2023-01-30T01:17:53.752Z,33.93
2023-01-30T01:20:20.753Z,35.10
2023-01-30T01:22:50.316Z,34.77
2023-01-30T01:25:17.198Z,34.03
2023-01-30T01:27:43.775Z,33.93
2023-01-30T01:30:10.562Z,38.97
2023-01-30T01:32:37.246Z,34.03
2023-01-30T01:35:03.935Z,32.80
2023-01-30T01:37:30.417Z,30.53
2023-01-30T01:40:15.723Z,35.13
2023-01-30T01:42:42.351Z,29.37
2023-01-30T01:45:15.455Z,31.83
2023-01-30T01:47:49.080Z,33.30
2023-01-30T01:50:26.967Z,36.27
2023-01-30T01:52:55.035Z,34.00
2023-01-30T01:55:22.974Z,33.97
2023-01-30T01:57:53.742Z,34.97
2023-01-30T02:00:21.333Z,34.28
2023-01-30T02:02:49.717Z,34.70
2023-01-30T02:05:17.645Z,34.97
2023-01-30T02:07:47.095Z,34.23
2023-01-30T02:10:23.310Z,34.90
2023-01-30T02:12:50.088Z,32.47
2023-01-30T02:15:17.521Z,33.83
2023-01-30T02:17:44.458Z,35.13
2023-01-30T02:20:16.747Z,34.87
2023-01-30T02:23:01.804Z,33.13
2023-01-30T02:25:34.209Z,35.87
2023-01-30T02:28:09.629Z,39.97
2023-01-30T02:30:58.548Z,38.87
2023-01-30T02:33:43.822Z,32.67
2023-01-30T02:36:16.883Z,38.73
2023-01-30T02:38:46.330Z,34.27
2023-01-30T02:41:15.575Z,40.63
2023-01-30T02:44:04.980Z,34.07
2023-01-30T02:46:41.591Z,38.30
2023-01-30T02:49:10.981Z,33.07
2023-01-30T02:51:38.908Z,35.10
2023-01-30T02:54:06.113Z,32.77
2023-01-30T02:56:43.509Z,34.13
2023-01-30T02:59:10.059Z,35.07
2023-01-30T03:01:51.751Z,37.00
2023-01-30T03:04:26.429Z,36.30
2023-01-30T03:06:58.847Z,38.33
2023-01-30T03:09:25.333Z,39.03
2023-01-30T03:12:01.418Z,39.93
2023-01-30T03:14:35.681Z,39.57
2023-01-30T03:17:04.496Z,34.40
2023-01-30T03:19:31.122Z,34.80
2023-01-30T03:21:57.616Z,36.23
2023-01-30T03:24:24.438Z,37.00
2023-01-30T03:27:02.971Z,37.70
2023-01-30T03:29:29.453Z,33.83
2023-01-30T03:31:56.001Z,37.80
2023-01-30T03:34:22.445Z,36.57
2023-01-30T03:36:48.890Z,34.87
2023-01-30T03:39:15.429Z,38.60
2023-01-30T03:41:42.183Z,37.60
2023-01-30T03:44:08.715Z,36.13
2023-01-30T03:46:35.195Z,34.30
2023-01-30T03:49:01.621Z,33.43
2023-01-30T03:51:28.116Z,36.23
2023-01-30T03:53:54.528Z,41.23
2023-01-30T03:56:21.006Z,37.33
2023-01-30T03:58:47.674Z,35.07
2023-01-30T04:01:14.219Z,35.00
2023-01-30T04:03:40.665Z,37.83
2023-01-30T04:06:07.219Z,35.73
2023-01-30T04:08:33.799Z,35.93
2023-01-30T04:11:00.396Z,36.23
2023-01-30T04:13:26.859Z,37.50
2023-01-30T04:15:53.385Z,32.77
2023-01-30T04:18:19.915Z,36.30
2023-01-30T04:20:46.442Z,35.17
2023-01-30T04:23:12.918Z,41.10
2023-01-30T04:25:39.457Z,37.37
2023-01-30T04:28:06.042Z,40.20
2023-01-30T04:30:32.541Z,40.70
2023-01-30T04:32:58.962Z,45.77
2023-01-30T04:35:25.365Z,35.67
2023-01-30T04:37:51.762Z,35.90
2023-01-30T04:40:18.472Z,42.63
2023-01-30T04:42:45.049Z,40.23
2023-01-30T04:45:11.464Z,42.33
2023-01-30T04:47:37.947Z,39.90
2023-01-30T04:50:04.592Z,36.50
2023-01-30T04:52:31.097Z,34.20
2023-01-30T04:54:57.547Z,38.73
2023-01-30T04:57:24.038Z,38.53
2023-01-30T04:59:50.491Z,39.57
2023-01-30T05:02:16.968Z,42.07
2023-01-30T05:04:43.445Z,42.30
2023-01-30T05:07:11.767Z,41.00
2023-01-30T05:09:38.526Z,39.67
2023-01-30T05:12:05.077Z,41.23
2023-01-30T05:14:31.539Z,39.77
2023-01-30T05:16:57.965Z,40.40
2023-01-30T05:19:24.405Z,40.60
2023-01-30T05:21:50.795Z,36.77
2023-01-30T05:24:17.260Z,41.70
2023-01-30T05:26:43.810Z,37.53
2023-01-30T05:29:10.868Z,37.63
2023-01-30T05:31:38.760Z,37.90
2023-01-30T05:34:05.249Z,40.50
2023-01-30T05:36:31.639Z,42.40
2023-01-30T05:38:58.160Z,39.23
2023-01-30T05:41:24.633Z,40.73
2023-01-30T05:43:51.482Z,35.20
2023-01-30T05:46:18.130Z,39.13
2023-01-30T05:48:44.560Z,36.67
2023-01-30T05:51:18.934Z,38.53
2023-01-30T05:53:45.473Z,35.60
2023-01-30T05:56:12.199Z,40.63
2023-01-30T05:58:38.611Z,44.67
2023-01-30T06:01:06.085Z,42.00
2023-01-30T06:03:32.729Z,42.73
2023-01-30T06:06:01.008Z,40.10
2023-01-30T06:08:27.459Z,46.03
2023-01-30T06:10:53.941Z,50.90
2023-01-30T06:13:20.353Z,43.60
2023-01-30T06:15:46.863Z,40.80
2023-01-30T06:18:13.339Z,48.13
2023-01-30T06:20:39.826Z,41.00
2023-01-30T06:23:06.274Z,74.97
2023-01-30T06:25:32.754Z,46.90
2023-01-30T06:27:59.163Z,41.63
2023-01-30T06:30:25.656Z,39.87
2023-01-30T06:32:52.257Z,39.83
2023-01-30T06:35:19.132Z,40.30
2023-01-30T06:37:45.928Z,39.47
2023-01-30T06:40:12.679Z,39.23
2023-01-30T06:42:39.054Z,40.47
2023-01-30T06:45:05.770Z,49.20
2023-01-30T06:47:32.237Z,36.10
2023-01-30T06:49:58.747Z,41.90
2023-01-30T06:52:25.136Z,36.60
2023-01-30T06:54:51.576Z,41.20
2023-01-30T06:57:18.020Z,42.60
2023-01-30T06:59:44.451Z,42.50
2023-01-30T07:02:12.927Z,41.37
2023-01-30T07:04:39.438Z,43.67
2023-01-30T07:07:07.155Z,43.23
2023-01-30T07:09:33.748Z,46.03
2023-01-30T07:12:00.157Z,39.83
2023-01-30T07:14:26.708Z,40.60
2023-01-30T07:16:53.227Z,43.33
2023-01-30T07:19:19.626Z,41.23
2023-01-30T07:21:46.265Z,42.63
2023-01-30T07:24:12.757Z,44.73
2023-01-30T07:26:39.157Z,41.33
2023-01-30T07:29:05.600Z,42.00
2023-01-30T07:31:32.137Z,47.07
2023-01-30T07:33:58.567Z,41.23
2023-01-30T07:36:25.010Z,41.20
2023-01-30T07:38:51.517Z,41.60
2023-01-30T07:41:17.950Z,41.63
2023-01-30T07:43:44.400Z,49.27
2023-01-30T07:46:10.993Z,59.60
2023-01-30T07:48:37.405Z,56.97
2023-01-30T07:51:03.829Z,52.83
2023-01-30T07:53:30.319Z,50.80
2023-01-30T07:55:56.695Z,44.47
2023-01-30T07:58:23.154Z,43.07
2023-01-30T08:00:49.635Z,47.80
2023-01-30T08:03:16.740Z,43.27
2023-01-30T08:05:45.275Z,41.13
2023-01-30T08:08:11.721Z,40.20
2023-01-30T08:10:38.091Z,42.27
2023-01-30T08:13:04.649Z,54.93
2023-01-30T08:15:33.405Z,53.13
2023-01-30T08:17:59.849Z,43.03
2023-01-30T08:20:26.736Z,46.07
2023-01-30T08:22:53.604Z,46.07
2023-01-30T08:25:20.387Z,39.50
2023-01-30T08:27:46.823Z,38.93
2023-01-30T08:30:13.513Z,38.70
2023-01-30T08:32:40.069Z,40.93
2023-01-30T08:35:06.773Z,40.20
2023-01-30T08:37:33.359Z,42.77
2023-01-30T08:39:59.884Z,41.20
2023-01-30T08:42:26.291Z,48.17
2023-01-30T08:44:52.866Z,44.40
2023-01-30T08:47:19.282Z,39.47
2023-01-30T08:49:45.707Z,44.10
2023-01-30T08:52:12.214Z,47.40
2023-01-30T08:54:38.613Z,40.17
2023-01-30T08:57:05.060Z,41.87
2023-01-30T08:59:31.573Z,38.67
2023-01-30T09:01:57.995Z,36.83
2023-01-30T09:04:26.372Z,36.30
2023-01-30T09:06:52.840Z,36.97
2023-01-30T09:09:19.326Z,38.87
2023-01-30T09:11:48.101Z,39.47
2023-01-30T09:14:19.522Z,43.40
2023-01-30T09:16:55.565Z,40.83
2023-01-30T09:19:23.506Z,36.50
2023-01-30T09:21:50.698Z,38.90
2023-01-30T09:24:17.252Z,40.67
2023-01-30T09:26:45.187Z,38.93
2023-01-30T09:29:12.151Z,41.10
2023-01-30T09:31:38.984Z,37.73
2023-01-30T09:34:05.772Z,41.23
2023-01-30T09:36:32.228Z,41.43
2023-01-30T09:38:58.714Z,41.80
2023-01-30T09:41:37.377Z,40.20
2023-01-30T09:44:14.767Z,42.03
2023-01-30T09:46:48.351Z,43.17
2023-01-30T09:49:19.672Z,39.73
2023-01-30T09:51:49.322Z,39.10
2023-01-30T09:54:24.516Z,59.80
2023-01-30T09:56:56.831Z,39.63
2023-01-30T09:59:25.694Z,34.83
2023-01-30T10:01:55.094Z,36.40
2023-01-30T10:04:21.532Z,53.20
2023-01-30T10:06:53.930Z,38.57
2023-01-30T10:09:20.466Z,35.23
2023-01-30T10:12:03.236Z,39.10
2023-01-30T10:14:49.615Z,35.10
2023-01-30T10:17:32.726Z,43.90
2023-01-30T10:19:59.426Z,70.17
2023-01-30T10:22:48.916Z,57.70
2023-01-30T10:25:18.259Z,40.90
2023-01-30T10:27:50.121Z,36.93
2023-01-30T10:30:17.476Z,40.07
2023-01-30T10:32:46.528Z,40.03
2023-01-30T10:35:18.008Z,38.63
2023-01-30T10:37:47.659Z,41.43
2023-01-30T10:40:29.714Z,43.27
2023-01-30T10:43:03.356Z,38.63
2023-01-30T10:45:36.550Z,45.60
2023-01-30T10:48:26.553Z,41.27
2023-01-30T10:51:04.860Z,41.80
2023-01-30T10:53:31.293Z,40.25
2023-01-30T10:56:08.621Z,36.23
2023-01-30T10:58:35.000Z,45.37
2023-01-30T11:01:04.445Z,36.70
2023-01-30T11:03:45.530Z,43.57
2023-01-30T11:06:16.564Z,38.95
2023-01-30T11:08:43.319Z,41.33
2023-01-30T11:11:24.885Z,37.20
2023-01-30T11:13:51.432Z,44.63
2023-01-30T11:16:18.191Z,42.17
2023-01-30T11:21:43.422Z,58.33
2023-01-30T11:24:17.166Z,37.03
2023-01-30T11:26:47.841Z,34.67
2023-01-30T11:29:26.043Z,30.95
2023-01-30T11:31:52.828Z,34.70
2023-01-30T11:34:20.452Z,40.03
2023-01-30T11:36:47.308Z,46.53
2023-01-30T11:39:18.439Z,36.27
2023-01-30T11:41:54.296Z,29.88
2023-01-30T11:44:36.799Z,29.33
2023-01-30T11:47:23.714Z,26.90
2023-01-30T11:49:59.828Z,30.23
2023-01-30T11:52:30.341Z,31.53
2023-01-30T11:55:03.217Z,31.10
2023-01-30T11:57:29.703Z,35.60
2023-01-30T11:59:57.221Z,28.80
2023-01-30T12:02:43.166Z,32.60
2023-01-30T12:05:23.978Z,25.43
2023-01-30T12:07:50.758Z,22.25
2023-01-30T12:10:25.372Z,23.47
2023-01-30T12:12:53.461Z,23.20
2023-01-30T12:15:23.054Z,21.90
2023-01-30T12:17:52.762Z,25.10
2023-01-30T12:20:19.587Z,24.37
2023-01-30T12:22:49.682Z,26.10
2023-01-30T12:25:22.181Z,24.90
2023-01-30T12:27:52.711Z,24.63
2023-01-30T12:30:48.747Z,25.70
2023-01-30T12:35:43.289Z,23.13
2023-01-30T12:38:18.858Z,27.03
2023-01-30T12:40:47.063Z,20.47
2023-01-30T12:43:16.591Z,22.60
2023-01-30T12:45:55.448Z,21.13
2023-01-30T12:48:30.925Z,22.20
2023-01-30T12:51:03.280Z,22.50
2023-01-30T12:53:45.302Z,20.50
2023-01-30T12:56:30.332Z,23.03
2023-01-30T12:58:59.522Z,23.37
2023-01-30T13:01:29.571Z,25.17
2023-01-30T13:04:13.325Z,25.37
2023-01-30T13:06:46.855Z,25.07
2023-01-30T13:09:16.508Z,23.90
2023-01-30T13:11:52.203Z,24.57
2023-01-30T13:14:36.789Z,26.27
2023-01-30T13:17:10.087Z,24.43
2023-01-30T13:19:41.232Z,25.00
2023-01-30T13:22:15.818Z,19.87
2023-01-30T13:24:53.038Z,23.97
2023-01-30T13:27:21.162Z,26.33
2023-01-30T13:29:48.318Z,28.00
2023-01-30T13:32:16.808Z,24.47
2023-01-30T13:34:47.981Z,23.27
2023-01-30T13:37:20.385Z,25.77
2023-01-30T13:39:55.527Z,24.63
2023-01-30T13:42:49.921Z,26.57
2023-01-30T13:45:27.063Z,28.30
2023-01-30T13:48:12.448Z,28.63
2023-01-30T13:50:49.745Z,29.27
2023-01-30T13:53:42.412Z,28.47
2023-01-30T13:56:16.298Z,26.53
2023-01-30T13:59:12.624Z,27.10
2023-01-30T14:01:57.859Z,29.93
2023-01-30T14:04:44.659Z,25.13
2023-01-30T14:07:20.296Z,24.53
2023-01-30T14:09:49.771Z,24.03
2023-01-30T14:12:18.503Z,28.40
2023-01-30T14:14:57.647Z,24.33
2023-01-30T14:17:24.180Z,32.63
2023-01-30T14:19:57.278Z,23.30
2023-01-30T14:22:34.276Z,23.87
2023-01-30T14:25:19.824Z,24.97
2023-01-30T14:27:46.759Z,25.70
2023-01-30T14:30:39.470Z,23.37
2023-01-30T14:33:21.001Z,21.30
2023-01-30T14:36:03.638Z,24.83
2023-01-30T14:38:40.439Z,24.03
2023-01-30T14:41:07.017Z,20.77
2023-01-30T14:43:36.408Z,21.60
2023-01-30T14:46:07.486Z,19.63
2023-01-30T14:48:37.915Z,23.53
2023-01-30T14:51:24.092Z,20.40
2023-01-30T14:54:01.923Z,16.77
2023-01-30T14:56:47.336Z,17.47
2023-01-30T14:59:16.620Z,27.33
2023-01-30T15:02:13.206Z,18.53
2023-01-30T15:04:39.761Z,18.37
2023-01-30T15:07:10.363Z,15.10
2023-01-30T15:09:37.247Z,21.30
2023-01-30T15:12:11.775Z,13.30
2023-01-30T15:14:49.720Z,21.67
2023-01-30T15:17:16.203Z,16.17
2023-01-30T15:19:56.370Z,15.73
2023-01-30T15:22:22.860Z,14.63
2023-01-30T15:24:58.567Z,14.03
2023-01-30T15:27:34.850Z,12.80
2023-01-30T15:30:09.529Z,13.83
2023-01-30T15:32:36.097Z,14.97
2023-01-30T15:35:12.469Z,17.30
2023-01-30T15:37:40.522Z,14.20
2023-01-30T15:40:13.024Z,13.60
2023-01-30T15:42:39.660Z,14.03
2023-01-30T15:45:11.936Z,12.57
2023-01-30T15:47:39.987Z,12.17
2023-01-30T15:50:10.073Z,13.17
2023-01-30T15:52:44.345Z,14.27
2023-01-30T15:55:15.766Z,11.97
2023-01-30T15:57:44.574Z,14.73
2023-01-30T16:00:20.484Z,12.87
2023-01-30T16:02:47.268Z,12.83
2023-01-30T16:05:14.428Z,12.67
2023-01-30T16:07:41.445Z,11.30
2023-01-30T16:10:15.190Z,15.13
2023-01-30T16:12:41.780Z,12.27
2023-01-30T16:15:19.706Z,10.27
2023-01-30T16:17:52.470Z,12.10
2023-01-30T16:20:18.930Z,10.63
2023-01-30T16:22:47.987Z,11.30
2023-01-30T16:25:22.856Z,9.90
2023-01-30T16:27:51.598Z,18.63
2023-01-30T16:30:26.388Z,14.43
2023-01-30T16:32:53.613Z,18.17
2023-01-30T16:35:27.492Z,17.23
2023-01-30T16:37:55.868Z,17.10
2023-01-30T16:40:31.913Z,11.70
2023-01-30T16:43:00.095Z,12.90
2023-01-30T16:45:35.829Z,12.03
2023-01-30T16:48:17.396Z,13.93
2023-01-30T16:50:44.855Z,13.13
2023-01-30T16:53:16.656Z,13.07
2023-01-30T16:55:54.461Z,11.63
2023-01-30T16:58:21.560Z,9.47
2023-01-30T17:00:50.291Z,11.43
2023-01-30T17:03:29.779Z,10.87
2023-01-30T17:05:56.472Z,9.93
2023-01-30T17:08:31.895Z,10.17
2023-01-30T17:10:59.249Z,9.47
2023-01-30T17:13:39.037Z,8.70
2023-01-30T17:16:24.332Z,12.37
2023-01-30T17:18:55.429Z,8.13
2023-01-30T17:21:23.610Z,10.30
2023-01-30T17:23:55.008Z,7.60
2023-01-30T17:26:21.551Z,9.70
2023-01-30T17:28:48.009Z,8.73
2023-01-30T17:31:15.800Z,7.57
2023-01-30T17:33:42.757Z,10.30
2023-01-30T17:36:19.356Z,9.93
2023-01-30T17:38:46.183Z,12.03
2023-01-30T17:41:19.992Z,11.73
2023-01-30T17:43:47.097Z,12.23
2023-01-30T17:46:15.148Z,12.50
2023-01-30T17:48:41.787Z,17.00
2023-01-30T17:51:08.632Z,19.30
2023-01-30T17:53:35.129Z,16.47
2023-01-30T17:56:01.626Z,10.23
2023-01-30T17:58:28.000Z,8.43
2023-01-30T18:00:54.461Z,15.83
2023-01-30T18:03:20.932Z,10.10
2023-01-30T18:05:47.456Z,10.33
2023-01-30T18:08:14.201Z,9.80
2023-01-30T18:10:40.620Z,12.50
2023-01-30T18:13:07.015Z,11.80
2023-01-30T18:15:33.463Z,12.83
2023-01-30T18:17:59.933Z,13.53
2023-01-30T18:20:26.418Z,9.97
2023-01-30T18:22:53.071Z,11.93
2023-01-30T18:25:19.793Z,7.27
2023-01-30T18:27:47.979Z,5.90
2023-01-30T18:30:17.244Z,7.47
2023-01-30T18:32:52.392Z,6.87
2023-01-30T18:35:20.203Z,8.87
2023-01-30T18:37:46.631Z,11.13
2023-01-30T18:40:15.078Z,10.37
2023-01-30T18:42:41.723Z,8.30
2023-01-30T18:45:08.382Z,8.37
2023-01-30T18:47:34.832Z,7.67
2023-01-30T18:50:01.350Z,8.97
2023-01-30T18:52:27.721Z,6.60
2023-01-30T18:54:54.169Z,6.00
2023-01-30T18:57:20.674Z,5.57
2023-01-30T18:59:47.191Z,5.30
2023-01-30T19:02:13.840Z,9.40
2023-01-30T19:04:40.391Z,6.33
2023-01-30T19:07:06.794Z,10.53
2023-01-30T19:09:33.165Z,8.43
2023-01-30T19:12:18.244Z,7.33
2023-01-30T19:14:44.655Z,6.90
2023-01-30T19:17:11.134Z,5.97
2023-01-30T19:19:37.563Z,6.50
2023-01-30T19:22:03.995Z,6.47
2023-01-30T19:24:30.464Z,5.73
2023-01-30T19:26:56.924Z,6.10
2023-01-30T19:29:23.411Z,5.13
2023-01-30T19:31:50.191Z,5.43
2023-01-30T19:34:16.820Z,4.90
2023-01-30T19:36:43.332Z,5.90
2023-01-30T19:39:09.761Z,4.40
2023-01-30T19:41:36.586Z,5.07
2023-01-30T19:44:04.689Z,11.17
2023-01-30T19:46:31.361Z,14.93
2023-01-30T19:48:57.923Z,13.03
2023-01-30T19:51:25.639Z,15.17
2023-01-30T19:53:56.238Z,15.13
2023-01-30T19:56:24.937Z,11.02
2023-01-30T19:58:52.490Z,12.50
2023-01-30T20:01:19.724Z,11.23
2023-01-30T20:03:46.271Z,9.83
2023-01-30T20:06:13.220Z,41.90
2023-01-30T20:08:40.061Z,14.83
2023-01-30T20:11:08.348Z,9.67
2023-01-30T20:13:35.321Z,11.00
2023-01-30T20:16:06.671Z,11.63
2023-01-30T20:18:35.053Z,12.17
2023-01-30T20:21:08.804Z,10.23
2023-01-30T20:23:35.750Z,11.33
2023-01-30T20:26:06.026Z,14.17
2023-01-30T20:28:32.955Z,11.82
2023-01-30T20:30:59.691Z,10.23
2023-01-30T20:33:26.521Z,11.30
2023-01-30T20:35:53.045Z,9.97
2023-01-30T20:38:19.637Z,10.60
2023-01-30T20:40:47.304Z,11.23
2023-01-30T20:43:13.712Z,8.63
2023-01-30T20:45:40.200Z,9.87
2023-01-30T20:48:06.728Z,9.40
2023-01-30T20:50:33.508Z,9.27
2023-01-30T20:53:00.043Z,10.20
2023-01-30T20:55:26.520Z,8.13
2023-01-30T20:57:53.023Z,7.90
2023-01-30T21:00:19.733Z,8.30
2023-01-30T21:02:50.301Z,9.47
2023-01-30T21:05:19.152Z,9.82
2023-01-30T21:07:45.869Z,8.20
2023-01-30T21:10:12.375Z,9.17
2023-01-30T21:12:39.310Z,11.50
2023-01-30T21:15:06.048Z,12.20
2023-01-30T21:17:32.453Z,12.17
2023-01-30T21:19:58.981Z,8.10
2023-01-30T21:22:25.442Z,12.07
2023-01-30T21:24:51.887Z,11.37
2023-01-30T21:27:20.236Z,8.70
2023-01-30T21:29:46.694Z,11.37
2023-01-30T21:32:13.215Z,7.40
2023-01-30T21:34:39.603Z,9.37
2023-01-30T21:37:24.607Z,7.53
2023-01-30T21:40:09.873Z,7.53
2023-01-30T21:42:54.915Z,7.50
2023-01-30T21:45:22.034Z,7.77
2023-01-30T21:47:52.394Z,6.40
2023-01-30T21:50:18.917Z,6.40
2023-01-30T21:52:45.338Z,6.50
2023-01-30T21:55:13.129Z,5.93
2023-01-30T21:57:40.037Z,5.47
2023-01-30T22:00:06.788Z,8.07
2023-01-30T22:02:33.293Z,6.30
2023-01-30T22:04:59.704Z,6.27
2023-01-30T22:07:26.083Z,4.40
2023-01-30T22:09:52.485Z,4.67
2023-01-30T22:12:18.935Z,4.67
2023-01-30T22:14:45.433Z,5.37
2023-01-30T22:17:11.951Z,5.10
2023-01-30T22:19:38.577Z,4.77
2023-01-30T22:22:05.050Z,4.93
2023-01-30T22:24:31.716Z,4.87
2023-01-30T22:26:58.226Z,4.60
2023-01-30T22:29:24.770Z,4.83
2023-01-30T22:31:51.651Z,5.13
2023-01-30T22:34:19.385Z,3.37
2023-01-30T22:36:46.103Z,3.23
2023-01-30T22:39:12.497Z,2.60
2023-01-30T22:41:39.497Z,2.50
2023-01-30T22:44:08.375Z,3.37
2023-01-30T22:46:36.287Z,2.23
2023-01-30T22:49:03.704Z,2.67
2023-01-30T22:51:31.239Z,3.13
2023-01-30T22:53:58.844Z,4.07
2023-01-30T22:56:26.503Z,2.83
2023-01-30T22:58:53.040Z,2.60
2023-01-30T23:01:24.180Z,3.17
2023-01-30T23:04:10.603Z,2.78
2023-01-30T23:06:37.312Z,2.73
2023-01-30T23:09:04.489Z,2.10
2023-01-30T23:11:32.825Z,2.20
2023-01-30T23:14:04.605Z,2.37
2023-01-30T23:16:32.684Z,2.00
2023-01-30T23:18:59.156Z,2.90
2023-01-30T23:21:35.888Z,3.90
2023-01-30T23:24:06.583Z,4.83
2023-01-30T23:26:34.715Z,6.57
2023-01-30T23:29:02.232Z,6.17
2023-01-30T23:31:29.300Z,7.60
2023-01-30T23:34:03.241Z,6.60
2023-01-30T23:36:30.434Z,4.73
2023-01-30T23:38:57.791Z,5.93
2023-01-30T23:41:29.030Z,5.50
2023-01-30T23:46:23.202Z,5.37
2023-01-30T23:48:50.967Z,5.47
2023-01-30T23:51:18.268Z,6.07
2023-01-30T23:53:45.262Z,4.60
2023-01-30T23:56:11.870Z,4.57
2023-01-30T23:58:38.767Z,3.27
